Time;durP1;ratioP1;P1;durP2;ratioP2;P2;SDS_P1;SDS_P2;PMS_P1;PMS_P2;Temp;Humidity;BMP_temperature;BMP_pressure;BME280_temperature;BME280_humidity;BME280_pressure;Samples;Min_cycle;Max_cycle;Signal;HPM_P1;HPM_P2
2023/06/01 00:01:41;;;;;;;5.20;3.70;;;23.50;63.30;;;;;;6215914;23;20008;-80
2023/06/01 00:04:07;;;;;;;5.25;3.70;;;23.50;63.50;;;;;;6213420;23;20015;-80
2023/06/01 00:06:34;;;;;;;8.25;3.70;;;23.50;64.00;;;;;;6211977;23;20382;-80
2023/06/01 00:09:00;;;;;;;8.43;4.07;;;23.50;63.80;;;;;;6215375;23;20000;-80
2023/06/01 00:11:26;;;;;;;5.78;3.63;;;23.50;63.80;;;;;;6214239;23;20437;-79
2023/06/01 00:13:52;;;;;;;5.18;3.47;;;23.50;64.10;;;;;;6214161;23;20144;-79
2023/06/01 00:16:18;;;;;;;5.10;3.88;;;23.50;64.20;;;;;;6215605;23;20059;-79
2023/06/01 00:18:44;;;;;;;7.90;4.18;;;23.60;64.60;;;;;;6214521;23;20001;-79
2023/06/01 00:21:10;;;;;;;6.70;3.55;;;23.60;64.60;;;;;;6216392;23;20013;-79
2023/06/01 00:23:36;;;;;;;7.30;3.75;;;23.60;64.30;;;;;;6215239;23;20016;-79
2023/06/01 00:26:02;;;;;;;5.07;3.75;;;23.50;63.90;;;;;;6215256;23;20055;-79
2023/06/01 00:28:28;;;;;;;6.22;3.22;;;23.50;64.30;;;;;;6215859;23;20446;-79
2023/06/01 00:30:54;;;;;;;6.82;4.15;;;23.50;64.20;;;;;;6215651;23;20031;-79
2023/06/01 00:33:20;;;;;;;6.30;3.80;;;23.50;64.40;;;;;;6214822;23;20000;-79
2023/06/01 00:35:46;;;;;;;5.28;4.20;;;23.40;64.60;;;;;;6214809;23;20001;-78
2023/06/01 00:38:12;;;;;;;4.60;3.45;;;23.50;64.50;;;;;;6215096;23;20442;-79
2023/06/01 00:40:38;;;;;;;8.18;4.43;;;23.50;64.70;;;;;;6215355;23;20064;-79
2023/06/01 00:43:04;;;;;;;6.10;3.95;;;23.40;63.80;;;;;;6215304;23;20069;-79
2023/06/01 00:45:30;;;;;;;5.72;4.10;;;23.40;63.70;;;;;;6214514;23;20001;-79
2023/06/01 00:47:56;;;;;;;6.88;3.75;;;23.40;63.90;;;;;;6214372;23;20009;-79
2023/06/01 00:50:22;;;;;;;4.50;3.67;;;23.40;63.90;;;;;;6213611;23;20005;-79
2023/06/01 00:52:50;;;;;;;5.43;4.30;;;23.40;64.00;;;;;;6213402;23;20001;-80
2023/06/01 00:55:16;;;;;;;6.22;4.10;;;23.40;64.30;;;;;;6215258;23;19997;-80
2023/06/01 00:57:43;;;;;;;5.32;3.55;;;23.40;64.10;;;;;;6215603;23;20008;-80
2023/06/01 01:00:10;;;;;;;5.55;3.45;;;23.40;64.00;;;;;;6215270;23;20004;-80
2023/06/01 01:02:40;;;;;;;6.75;3.55;;;23.40;64.30;;;;;;6215635;23;20000;-80
2023/06/01 01:05:09;;;;;;;;;;;23.40;64.30;;;;;;6214581;23;20032;-80
2023/06/01 01:07:41;;;;;;;6.45;3.80;;;23.40;64.10;;;;;;6215103;23;19943;-80
2023/06/01 01:10:18;;;;;;;8.43;4.03;;;23.40;64.00;;;;;;6214444;23;20024;-81
2023/06/01 01:13:12;;;;;;;7.70;4.25;;;23.40;64.10;;;;;;6215093;23;20024;-80
2023/06/01 01:15:43;;;;;;;4.43;3.72;;;23.40;64.10;;;;;;6214823;23;20031;-79
2023/06/01 01:18:17;;;;;;;7.60;4.22;;;23.40;63.90;;;;;;6214623;23;20051;-80
2023/06/01 01:20:48;;;;;;;5.28;4.00;;;23.40;63.80;;;;;;6214908;23;19997;-80
2023/06/01 01:23:24;;;;;;;8.65;4.03;;;23.40;63.90;;;;;;6215162;23;20068;-80
2023/06/01 01:26:28;;;;;;;6.35;4.30;;;23.40;64.00;;;;;;6214739;23;20499;-78
2023/06/01 01:29:15;;;;;;;5.25;4.00;;;23.40;64.00;;;;;;6214815;23;20003;-79
2023/06/01 01:31:42;;;;;;;6.30;3.90;;;23.40;64.20;;;;;;6213132;23;20004;-79
2023/06/01 01:34:09;;;;;;;4.50;3.50;;;23.40;64.20;;;;;;6213697;23;20122;-79
2023/06/01 01:36:35;;;;;;;5.40;4.00;;;23.40;64.00;;;;;;6213405;23;20006;-79
2023/06/01 01:39:02;;;;;;;5.75;3.78;;;23.40;63.90;;;;;;6215489;23;20000;-79
2023/06/01 01:41:28;;;;;;;5.82;3.72;;;23.40;64.10;;;;;;6214869;23;20028;-79
2023/06/01 01:43:54;;;;;;;5.15;3.90;;;23.40;63.90;;;;;;6214157;23;20051;-81
2023/06/01 01:46:30;;;;;;;5.57;4.10;;;23.30;63.90;;;;;;6214458;23;20013;-80
2023/06/01 01:49:15;;;;;;;6.82;4.72;;;23.30;64.10;;;;;;6213965;23;20067;-80
2023/06/01 01:51:49;;;;;;;5.93;4.07;;;23.30;64.20;;;;;;6213997;23;20008;-80
2023/06/01 01:54:15;;;;;;;6.18;3.70;;;23.30;64.30;;;;;;6213879;23;20447;-80
2023/06/01 01:56:41;;;;;;;6.80;4.00;;;23.30;64.30;;;;;;6214198;23;20004;-80
2023/06/01 01:59:07;;;;;;;4.85;3.28;;;23.20;64.20;;;;;;6214513;23;20000;-80
2023/06/01 02:01:33;;;;;;;6.22;3.75;;;23.30;64.20;;;;;;6214658;23;20012;-81
2023/06/01 02:04:02;;;;;;;7.40;3.58;;;23.20;64.10;;;;;;6213913;23;20032;-81
2023/06/01 02:06:28;;;;;;;4.78;3.95;;;23.20;64.20;;;;;;6214903;23;20001;-81
2023/06/01 02:08:54;;;;;;;6.50;4.40;;;23.20;64.50;;;;;;6214413;23;20000;-81
2023/06/01 02:11:20;;;;;;;5.88;4.15;;;23.20;64.60;;;;;;6214848;23;20071;-81
2023/06/01 02:13:46;;;;;;;7.03;3.97;;;23.20;64.50;;;;;;6213767;23;20024;-81
2023/06/01 02:16:12;;;;;;;10.43;4.38;;;23.20;64.30;;;;;;6214415;23;20376;-81
2023/06/01 02:18:39;;;;;;;5.15;4.07;;;23.20;64.30;;;;;;6213743;23;20011;-81
2023/06/01 02:21:05;;;;;;;8.65;4.45;;;23.20;64.30;;;;;;6214530;23;20435;-81
2023/06/01 02:23:31;;;;;;;5.80;3.58;;;23.20;64.30;;;;;;6212480;23;20058;-80
2023/06/01 02:25:56;;;;;;;5.55;4.20;;;23.20;64.40;;;;;;6214472;23;20084;-81
2023/06/01 02:28:22;;;;;;;6.72;4.20;;;23.20;64.30;;;;;;6214401;23;20001;-81
2023/06/01 02:30:48;;;;;;;6.68;3.58;;;23.10;64.20;;;;;;6213615;23;20109;-81
2023/06/01 02:33:13;;;;;;;7.03;4.18;;;23.10;64.20;;;;;;6214236;23;20407;-81
2023/06/01 02:35:39;;;;;;;6.20;4.25;;;23.10;64.20;;;;;;6214521;23;20088;-80
2023/06/01 02:38:05;;;;;;;6.22;3.78;;;23.10;64.30;;;;;;6214732;23;19997;-81
2023/06/01 02:40:31;;;;;;;7.05;4.63;;;23.10;64.30;;;;;;6214809;23;20062;-80
2023/06/01 02:42:56;;;;;;;11.77;4.35;;;23.10;64.40;;;;;;6214083;23;20000;-80
2023/06/01 02:45:22;;;;;;;6.43;4.00;;;23.10;64.60;;;;;;6214800;23;20004;-80
2023/06/01 02:47:48;;;;;;;7.38;4.38;;;23.10;64.40;;;;;;6213329;23;20088;-81
2023/06/01 02:50:13;;;;;;;7.85;4.35;;;23.00;64.50;;;;;;6213548;23;20001;-80
2023/06/01 02:52:39;;;;;;;4.88;3.92;;;23.00;64.60;;;;;;6213904;23;20036;-80
2023/06/01 02:55:06;;;;;;;11.52;5.13;;;22.90;64.60;;;;;;6214614;23;20029;-80
2023/06/01 02:57:31;;;;;;;6.53;3.95;;;22.90;64.70;;;;;;6216564;23;20058;-81
2023/06/01 02:59:57;;;;;;;4.93;3.92;;;22.90;64.60;;;;;;6216010;23;20005;-81
2023/06/01 03:02:23;;;;;;;8.18;4.60;;;22.90;64.60;;;;;;6215916;23;20430;-80
2023/06/01 03:04:48;;;;;;;7.75;4.57;;;22.80;64.60;;;;;;6216443;23;20416;-80
2023/06/01 03:07:14;;;;;;;6.65;4.22;;;22.80;64.70;;;;;;6216419;23;20422;-80
2023/06/01 03:09:40;;;;;;;6.50;4.20;;;22.80;64.90;;;;;;6216423;23;19997;-80
2023/06/01 03:12:06;;;;;;;6.03;4.47;;;22.70;64.90;;;;;;6215241;23;20144;-79
2023/06/01 03:14:32;;;;;;;6.50;3.65;;;22.70;65.10;;;;;;6215663;23;20028;-80
2023/06/01 03:16:57;;;;;;;5.95;4.35;;;22.60;65.20;;;;;;6216511;23;20068;-80
2023/06/01 03:19:23;;;;;;;5.30;4.05;;;22.60;65.20;;;;;;6215993;23;20500;-79
2023/06/01 03:21:49;;;;;;;13.73;4.43;;;22.60;65.40;;;;;;6215108;23;20035;-80
2023/06/01 03:24:14;;;;;;;6.32;4.90;;;22.50;65.50;;;;;;6216556;23;20001;-81
2023/06/01 03:26:40;;;;;;;8.00;4.55;;;22.50;65.50;;;;;;6215379;23;20008;-81
2023/06/01 03:29:06;;;;;;;6.70;4.22;;;22.50;65.60;;;;;;6216401;23;20001;-81
2023/06/01 03:31:34;;;;;;;10.80;5.10;;;22.50;65.80;;;;;;6215633;23;20031;-81
2023/06/01 03:34:00;;;;;;;6.10;4.60;;;22.40;65.80;;;;;;6216891;23;20067;-88
2023/06/01 03:36:27;;;;;;;6.00;4.32;;;22.40;66.10;;;;;;6217145;23;20071;-92
2023/06/01 03:38:53;;;;;;;7.05;4.95;;;22.40;66.00;;;;;;6215369;23;20012;-92
2023/06/01 03:41:19;;;;;;;7.00;4.97;;;22.40;66.20;;;;;;6215570;23;20009;-92
2023/06/01 03:43:45;;;;;;;8.30;4.55;;;22.40;66.30;;;;;;6215222;23;20071;-92
2023/06/01 03:46:11;;;;;;;6.93;4.25;;;22.30;66.60;;;;;;6215338;23;20016;-92
2023/06/01 03:48:37;;;;;;;6.88;4.15;;;22.30;66.50;;;;;;6215022;23;20069;-92
2023/06/01 03:51:03;;;;;;;8.70;4.85;;;22.30;66.80;;;;;;6215266;23;20005;-91
2023/06/01 03:53:31;;;;;;;5.85;3.88;;;22.30;66.90;;;;;;6216433;23;20063;-90
2023/06/01 03:55:56;;;;;;;7.38;4.70;;;22.20;66.90;;;;;;6216506;23;20012;-89
2023/06/01 03:58:23;;;;;;;6.68;4.75;;;22.20;66.80;;;;;;6216307;23;20005;-90
2023/06/01 04:00:49;;;;;;;8.00;3.90;;;22.20;67.00;;;;;;6216702;23;20058;-90
2023/06/01 04:03:15;;;;;;;5.95;4.50;;;22.20;67.20;;;;;;6216533;23;20005;-89
2023/06/01 04:05:41;;;;;;;5.32;4.35;;;22.20;67.10;;;;;;6216187;23;20377;-88
2023/06/01 04:08:08;;;;;;;7.50;4.15;;;22.20;67.00;;;;;;6215954;23;20088;-88
2023/06/01 04:10:34;;;;;;;6.18;4.60;;;22.20;67.10;;;;;;6215512;23;20027;-88
2023/06/01 04:13:00;;;;;;;12.02;4.90;;;22.20;67.20;;;;;;6215451;23;20339;-88
2023/06/01 04:15:25;;;;;;;6.88;4.78;;;22.20;67.10;;;;;;6215073;23;20461;-87
2023/06/01 04:17:51;;;;;;;6.50;4.40;;;22.10;67.20;;;;;;6215426;23;20001;-87
2023/06/01 04:20:17;;;;;;;6.10;4.25;;;22.10;67.00;;;;;;6216240;23;20483;-88
2023/06/01 04:22:45;;;;;;;5.05;4.10;;;22.10;67.20;;;;;;6215657;23;20011;-88
2023/06/01 04:25:12;;;;;;;8.52;5.47;;;22.10;67.30;;;;;;6216192;23;20072;-87
2023/06/01 04:27:45;;;;;;;8.80;4.80;;;22.10;67.20;;;;;;6216118;23;20300;-87
2023/06/01 04:30:13;;;;;;;10.18;5.00;;;22.10;67.40;;;;;;6214606;23;20009;-87
2023/06/01 04:32:39;;;;;;;5.95;4.75;;;22.10;67.50;;;;;;6215990;23;20008;-88
2023/06/01 04:35:06;;;;;;;7.05;4.65;;;22.10;67.60;;;;;;6215971;23;20070;-88
2023/06/01 04:37:37;;;;;;;7.88;4.57;;;22.10;67.60;;;;;;6215455;23;20035;-90
2023/06/01 04:40:07;;;;;;;8.80;5.20;;;22.10;67.90;;;;;;6215913;23;20008;-90
2023/06/01 04:42:34;;;;;;;6.55;5.15;;;22.10;67.90;;;;;;6215769;23;20012;-89
2023/06/01 04:45:04;;;;;;;5.80;4.75;;;22.00;68.00;;;;;;6214141;23;20051;-88
2023/06/01 04:47:36;;;;;;;6.72;5.32;;;22.00;67.90;;;;;;6215679;23;20008;-89
2023/06/01 04:50:03;;;;;;;6.28;5.20;;;22.00;68.10;;;;;;6215775;23;20024;-89
2023/06/01 04:52:29;;;;;;;7.40;5.30;;;22.00;68.50;;;;;;6213166;23;20080;-85
2023/06/01 04:54:55;;;;;;;5.95;4.55;;;22.00;68.60;;;;;;6214694;23;20007;-84
2023/06/01 04:57:21;;;;;;;8.40;5.50;;;22.10;68.70;;;;;;6213737;23;20008;-83
2023/06/01 04:59:46;;;;;;;7.38;4.85;;;22.10;68.60;;;;;;6215387;23;20127;-83
2023/06/01 05:02:12;;;;;;;11.75;5.72;;;22.10;68.70;;;;;;6214503;23;20005;-85
2023/06/01 05:04:38;;;;;;;9.02;5.40;;;22.20;68.70;;;;;;6214492;23;20005;-85
2023/06/01 05:07:04;;;;;;;9.23;5.05;;;22.20;68.80;;;;;;6215169;23;20009;-86
2023/06/01 05:09:29;;;;;;;6.60;5.03;;;22.20;68.80;;;;;;6215109;23;20000;-86
2023/06/01 05:11:55;;;;;;;7.50;5.03;;;22.20;69.00;;;;;;6212747;23;20507;-85
2023/06/01 05:14:21;;;;;;;7.15;5.60;;;22.30;68.80;;;;;;6215493;23;20035;-86
2023/06/01 05:16:48;;;;;;;8.75;5.88;;;22.30;68.90;;;;;;6213675;23;20039;-86
2023/06/01 05:19:14;;;;;;;6.97;5.47;;;22.30;69.10;;;;;;6214001;23;20001;-86
2023/06/01 05:21:42;;;;;;;7.78;5.57;;;22.30;68.70;;;;;;6214069;23;20013;-86
2023/06/01 05:24:08;;;;;;;7.75;5.55;;;22.30;69.00;;;;;;6214589;23;20004;-85
2023/06/01 05:26:33;;;;;;;8.70;5.18;;;22.30;68.90;;;;;;6214038;23;20005;-86
2023/06/01 05:28:59;;;;;;;8.90;4.85;;;22.30;68.90;;;;;;6214617;23;19996;-85
2023/06/01 05:31:25;;;;;;;5.85;4.55;;;22.30;68.80;;;;;;6214508;23;20007;-85
2023/06/01 05:33:51;;;;;;;8.27;4.82;;;22.40;68.70;;;;;;6214885;23;20005;-85
2023/06/01 05:36:17;;;;;;;8.30;5.15;;;22.40;68.60;;;;;;6213704;23;20150;-77
2023/06/01 05:38:43;;;;;;;4.93;3.92;;;22.40;68.40;;;;;;6215363;23;20412;-77
2023/06/01 05:41:08;;;;;;;7.13;4.90;;;22.50;68.00;;;;;;6215648;23;20075;-77
2023/06/01 05:43:38;;;;;;;6.57;5.03;;;22.60;68.00;;;;;;6214879;23;20000;-77
2023/06/01 05:46:04;;;;;;;6.60;4.38;;;22.60;67.90;;;;;;6214532;23;20419;-76
2023/06/01 05:48:30;;;;;;;8.82;4.47;;;22.60;67.80;;;;;;6214933;23;20013;-77
2023/06/01 05:50:55;;;;;;;4.85;4.15;;;22.70;67.90;;;;;;6215396;23;20308;-77
2023/06/01 05:53:24;;;;;;;6.30;4.82;;;22.70;67.90;;;;;;6214796;23;20003;-77
2023/06/01 05:55:51;;;;;;;7.28;4.72;;;22.80;68.20;;;;;;6214698;23;20004;-76
2023/06/01 05:58:17;;;;;;;8.30;5.28;;;22.90;67.80;;;;;;6214798;23;20001;-76
2023/06/01 06:00:43;;;;;;;5.68;4.28;;;22.90;67.80;;;;;;6214743;23;20024;-76
2023/06/01 06:03:08;;;;;;;7.47;4.93;;;22.90;67.60;;;;;;6215053;23;19996;-76
2023/06/01 06:05:34;;;;;;;12.30;4.90;;;22.90;67.60;;;;;;6214719;23;20001;-77
2023/06/01 06:08:00;;;;;;;7.18;4.82;;;23.00;68.00;;;;;;6214818;23;20008;-78
2023/06/01 06:10:26;;;;;;;6.40;4.38;;;23.10;68.10;;;;;;6213965;23;20001;-78
2023/06/01 06:12:52;;;;;;;6.28;4.57;;;23.10;68.00;;;;;;6213874;23;20071;-78
2023/06/01 06:15:18;;;;;;;6.07;4.55;;;23.20;68.00;;;;;;6215263;23;20384;-78
2023/06/01 06:17:43;;;;;;;9.05;4.30;;;23.20;67.50;;;;;;6214238;23;20587;-78
2023/06/01 06:20:10;;;;;;;4.93;4.28;;;23.30;67.50;;;;;;6213712;23;20004;-79
2023/06/01 06:22:36;;;;;;;6.30;4.35;;;23.30;67.30;;;;;;6214996;23;20423;-79
2023/06/01 06:25:02;;;;;;;7.10;4.18;;;23.40;67.30;;;;;;6214216;23;20063;-78
2023/06/01 06:27:28;;;;;;;7.53;4.65;;;23.40;67.10;;;;;;6213623;23;20087;-78
2023/06/01 06:29:54;;;;;;;5.10;3.85;;;23.50;66.50;;;;;;6214614;23;20052;-79
2023/06/01 06:32:20;;;;;;;6.15;3.80;;;23.50;66.40;;;;;;6216277;23;20000;-79
2023/06/01 06:34:46;;;;;;;4.47;3.63;;;23.50;66.20;;;;;;6217124;23;20007;-80
2023/06/01 06:37:11;;;;;;;6.53;3.80;;;23.60;65.90;;;;;;6213397;23;20005;-80
2023/06/01 06:39:37;;;;;;;6.70;4.40;;;23.60;65.40;;;;;;6214806;23;20011;-81
2023/06/01 06:42:05;;;;;;;6.50;4.30;;;23.70;64.50;;;;;;6216669;23;20311;-80
2023/06/01 06:44:31;;;;;;;5.47;4.40;;;23.70;64.70;;;;;;6217121;23;20000;-81
2023/06/01 06:47:00;;;;;;;5.53;4.15;;;23.70;64.70;;;;;;6216142;23;20005;-80
2023/06/01 06:49:26;;;;;;;6.40;4.63;;;23.80;64.60;;;;;;6213630;23;20040;-79
2023/06/01 06:51:51;;;;;;;5.75;3.63;;;23.80;64.20;;;;;;6216461;23;20055;-79
2023/06/01 06:54:17;;;;;;;5.53;3.72;;;23.90;64.00;;;;;;6214948;23;20039;-79
2023/06/01 06:56:44;;;;;;;5.18;3.90;;;23.90;63.50;;;;;;6216394;23;20011;-79
2023/06/01 06:59:10;;;;;;;5.90;4.78;;;24.00;63.20;;;;;;6216703;23;20308;-79
2023/06/01 07:01:37;;;;;;;6.80;4.03;;;24.10;63.30;;;;;;6216265;23;20084;-79
2023/06/01 07:04:05;;;;;;;6.28;4.55;;;24.10;63.40;;;;;;6216362;23;20493;-79
2023/06/01 07:06:32;;;;;;;7.95;5.00;;;24.10;63.00;;;;;;6216485;23;20001;-80
2023/06/01 07:08:58;;;;;;;5.47;4.22;;;24.20;62.50;;;;;;6216628;23;20080;-79
2023/06/01 07:11:26;;;;;;;5.50;3.92;;;24.30;62.90;;;;;;6217003;23;20007;-79
2023/06/01 07:13:52;;;;;;;6.80;4.38;;;24.30;62.70;;;;;;6217025;23;20001;-79
2023/06/01 07:16:18;;;;;;;5.97;4.15;;;24.40;62.70;;;;;;6216205;23;20477;-79
2023/06/01 07:18:47;;;;;;;6.47;4.00;;;24.40;62.40;;;;;;6214683;23;20037;-79
2023/06/01 07:21:12;;;;;;;6.28;4.28;;;24.50;62.40;;;;;;6217044;23;20011;-79
2023/06/01 07:23:41;;;;;;;6.13;3.60;;;24.60;62.00;;;;;;6217099;23;20323;-79
2023/06/01 07:26:07;;;;;;;5.20;4.00;;;24.60;62.00;;;;;;6216434;23;20051;-79
2023/06/01 07:28:33;;;;;;;5.75;3.70;;;24.70;62.00;;;;;;6216612;23;19997;-79
2023/06/01 07:30:59;;;;;;;8.05;4.28;;;24.70;61.90;;;;;;6216701;23;20430;-78
2023/06/01 07:33:25;;;;;;;9.23;4.45;;;24.80;61.70;;;;;;6216460;23;20058;-79
2023/06/01 07:35:52;;;;;;;7.07;4.82;;;24.80;61.50;;;;;;6216291;23;20430;-79
2023/06/01 07:38:20;;;;;;;5.00;3.80;;;24.80;61.40;;;;;;6214037;23;20005;-78
2023/06/01 07:40:46;;;;;;;6.55;3.90;;;24.90;61.40;;;;;;6215462;23;20001;-79
2023/06/01 07:43:12;;;;;;;5.22;3.92;;;24.90;61.30;;;;;;6216299;23;20431;-78
2023/06/01 07:45:40;;;;;;;4.80;4.22;;;25.00;61.60;;;;;;6216650;23;20015;-78
2023/06/01 07:48:06;;;;;;;4.38;3.35;;;25.10;61.40;;;;;;6213442;23;20017;-78
2023/06/01 07:50:32;;;;;;;8.20;3.90;;;25.10;61.10;;;;;;6215574;23;20008;-77
2023/06/01 07:52:58;;;;;;;4.70;3.40;;;25.20;61.50;;;;;;6216186;23;20003;-77
2023/06/01 07:55:24;;;;;;;9.07;3.88;;;25.30;61.20;;;;;;6216404;23;19996;-77
2023/06/01 07:57:50;;;;;;;5.65;3.72;;;25.40;61.10;;;;;;6214273;23;20023;-77
2023/06/01 08:00:17;;;;;;;7.15;4.20;;;25.40;61.00;;;;;;6214274;23;20350;-77
2023/06/01 08:02:43;;;;;;;6.13;3.85;;;25.50;60.50;;;;;;6216448;23;20062;-78
2023/06/01 08:05:11;;;;;;;4.93;3.53;;;25.50;61.00;;;;;;6216153;23;20001;-76
2023/06/01 08:07:37;;;;;;;7.78;3.85;;;25.60;60.80;;;;;;6215714;23;20011;-76
2023/06/01 08:10:05;;;;;;;7.57;3.75;;;25.60;60.60;;;;;;6215832;23;20418;-76
2023/06/01 08:12:31;;;;;;;6.72;3.97;;;25.60;61.30;;;;;;6215892;23;20007;-76
2023/06/01 08:14:58;;;;;;;5.10;3.60;;;25.70;61.20;;;;;;6216144;23;20001;-76
2023/06/01 08:17:24;;;;;;;7.15;4.13;;;25.70;60.40;;;;;;6216109;23;20000;-76
2023/06/01 08:19:50;;;;;;;6.45;4.05;;;25.80;60.60;;;;;;6215311;23;20001;-76
2023/06/01 08:22:17;;;;;;;5.05;3.40;;;25.80;60.60;;;;;;6215871;23;20039;-76
2023/06/01 08:24:43;;;;;;;7.07;4.22;;;25.90;60.40;;;;;;6216639;23;20008;-76
2023/06/01 08:27:22;;;;;;;4.53;3.63;;;25.90;58.90;;;;;;6216280;23;20005;-76
2023/06/01 08:29:49;;;;;;;7.03;3.92;;;25.90;59.30;;;;;;6215313;23;20001;-76
2023/06/01 08:32:16;;;;;;;5.70;3.47;;;25.90;59.80;;;;;;6216000;23;20009;-76
2023/06/01 08:34:46;;;;;;;7.18;3.90;;;26.00;59.20;;;;;;6216193;23;20000;-76
2023/06/01 08:37:15;;;;;;;6.15;4.05;;;26.00;59.60;;;;;;6216059;23;20001;-78
2023/06/01 08:39:41;;;;;;;7.65;3.42;;;26.10;59.80;;;;;;6215600;23;20059;-77
2023/06/01 08:42:15;;;;;;;6.30;3.88;;;26.10;59.20;;;;;;6217980;23;20005;-78
2023/06/01 08:44:42;;;;;;;5.00;3.72;;;26.20;59.10;;;;;;6215830;23;20004;-78
2023/06/01 08:47:08;;;;;;;5.45;3.90;;;26.20;59.50;;;;;;6215073;23;20096;-78
2023/06/01 08:49:36;;;;;;;5.50;3.60;;;26.20;59.60;;;;;;6212631;23;20009;-78
2023/06/01 08:52:10;;;;;;;4.82;3.58;;;26.30;59.80;;;;;;6214635;23;20007;-78
2023/06/01 08:54:37;;;;;;;7.28;3.72;;;26.40;59.90;;;;;;6213988;23;20051;-76
2023/06/01 08:57:09;;;;;;;6.80;4.07;;;26.40;60.10;;;;;;6214942;23;20009;-76
2023/06/01 08:59:36;;;;;;;4.80;3.53;;;26.50;59.30;;;;;;6214447;23;20000;-76
2023/06/01 09:02:02;;;;;;;4.63;3.75;;;26.50;59.30;;;;;;6214614;23;20008;-78
2023/06/01 09:04:31;;;;;;;3.80;3.38;;;26.60;59.40;;;;;;6215637;23;20001;-76
2023/06/01 09:06:57;;;;;;;6.65;3.92;;;26.60;59.70;;;;;;6214990;23;20004;-77
2023/06/01 09:09:23;;;;;;;7.30;4.15;;;26.60;59.30;;;;;;6212779;23;20008;-77
2023/06/01 09:12:18;;;;;;;4.85;3.80;;;26.70;59.50;;;;;;6214273;23;20131;-77
2023/06/01 09:14:44;;;;;;;4.55;3.67;;;26.80;59.40;;;;;;6215394;23;20072;-78
2023/06/01 09:17:28;;;;;;;6.43;4.72;;;26.80;59.60;;;;;;6215652;23;20078;-78
2023/06/01 09:19:55;;;;;;;5.55;3.97;;;26.90;59.30;;;;;;6214841;23;20032;-78
2023/06/01 09:22:21;;;;;;;4.95;3.80;;;26.90;59.40;;;;;;6214840;23;20001;-77
2023/06/01 09:24:58;;;;;;;6.85;3.83;;;27.00;59.20;;;;;;6213306;23;20012;-77
2023/06/01 09:27:25;;;;;;;6.18;4.63;;;27.00;58.80;;;;;;6215339;23;20001;-76
2023/06/01 09:29:59;;;;;;;5.47;4.35;;;27.10;58.80;;;;;;6210625;23;20584;-77
2023/06/01 09:32:25;;;;;;;5.80;3.75;;;27.10;58.90;;;;;;6207677;23;20004;-77
2023/06/01 09:34:51;;;;;;;6.07;4.18;;;27.10;59.60;;;;;;6213398;23;20051;-78
2023/06/01 09:37:17;;;;;;;6.68;4.35;;;27.30;59.30;;;;;;6214394;23;20118;-78
2023/06/01 09:39:43;;;;;;;5.18;3.72;;;27.30;58.80;;;;;;6214224;23;20005;-78
2023/06/01 09:42:09;;;;;;;5.82;4.07;;;27.30;58.90;;;;;;6212969;23;20419;-79
2023/06/01 09:44:37;;;;;;;5.78;4.40;;;27.40;59.10;;;;;;6213061;23;20005;-77
2023/06/01 09:47:10;;;;;;;6.38;4.95;;;27.50;58.90;;;;;;6214276;23;20319;-78
2023/06/01 09:49:41;;;;;;;7.32;4.47;;;27.60;58.50;;;;;;6213649;23;20039;-78
2023/06/01 09:52:07;;;;;;;5.25;3.92;;;27.70;58.50;;;;;;6214256;23;20047;-78
2023/06/01 09:54:45;;;;;;;5.55;4.28;;;27.70;58.50;;;;;;6214327;23;20001;-79
2023/06/01 09:57:11;;;;;;;5.88;4.32;;;27.80;58.00;;;;;;6214010;23;20000;-78
2023/06/01 09:59:45;;;;;;;7.75;4.45;;;27.80;57.80;;;;;;6213639;23;20000;-79
2023/06/01 10:02:19;;;;;;;9.05;4.55;;;27.90;57.50;;;;;;6213595;23;20001;-79
2023/06/01 10:04:50;;;;;;;5.63;4.55;;;28.00;57.60;;;;;;6214449;23;20001;-77
2023/06/01 10:07:17;;;;;;;4.47;3.70;;;28.00;57.50;;;;;;6214643;23;20004;-75
2023/06/01 10:09:47;;;;;;;6.15;4.20;;;28.10;57.20;;;;;;6214712;23;20454;-78
2023/06/01 10:12:14;;;;;;;4.63;3.88;;;28.20;57.30;;;;;;6214397;23;20438;-78
2023/06/01 10:14:40;;;;;;;6.53;4.32;;;28.30;57.40;;;;;;6213658;23;20435;-78
2023/06/01 10:17:07;;;;;;;5.22;3.83;;;28.40;57.60;;;;;;6214874;23;20001;-79
2023/06/01 10:19:35;;;;;;;5.75;3.78;;;28.40;56.50;;;;;;6214812;23;20005;-79
2023/06/01 10:22:03;;;;;;;5.20;3.83;;;28.50;56.70;;;;;;6214545;23;20005;-79
2023/06/01 10:24:29;;;;;;;6.45;3.67;;;28.60;56.50;;;;;;6214778;23;20059;-78
2023/06/01 10:27:20;;;;;;;5.80;3.72;;;28.60;55.90;;;;;;6212792;23;20439;-79
2023/06/01 10:29:47;;;;;;;6.25;3.55;;;28.70;55.80;;;;;;6214519;23;20001;-79
2023/06/01 10:32:38;;;;;;;4.63;3.53;;;28.80;56.00;;;;;;6212825;23;20008;-81
2023/06/01 10:35:07;;;;;;;6.60;3.97;;;28.90;56.20;;;;;;6212102;23;20390;-81
2023/06/01 10:37:34;;;;;;;5.20;3.70;;;29.10;56.70;;;;;;6213396;23;20004;-80
2023/06/01 10:40:23;;;;;;;7.28;4.00;;;29.20;56.70;;;;;;6213638;23;20055;-80
2023/06/01 10:42:49;;;;;;;5.20;3.70;;;29.40;56.10;;;;;;6214382;23;20001;-79
2023/06/01 10:45:36;;;;;;;5.28;3.50;;;29.50;55.90;;;;;;6215053;23;20005;-81
2023/06/01 10:48:03;;;;;;;6.53;3.80;;;29.60;55.40;;;;;;6214216;23;20012;-77
2023/06/01 10:50:29;;;;;;;5.53;4.07;;;29.60;55.10;;;;;;6215064;23;19997;-77
2023/06/01 10:52:55;;;;;;;10.25;3.85;;;29.70;54.40;;;;;;6214993;23;20012;-78
2023/06/01 10:55:27;;;;;;;8.43;4.47;;;29.80;54.60;;;;;;6214867;23;20012;-77
2023/06/01 10:58:26;;;;;;;5.15;3.40;;;29.80;53.40;;;;;;6214802;23;20076;-79
2023/06/01 11:00:55;;;;;;;5.15;3.80;;;29.90;53.90;;;;;;6212925;23;20063;-79
2023/06/01 11:03:49;;;;;;;6.63;4.13;;;30.00;54.10;;;;;;6211690;23;20016;-78
2023/06/01 11:06:31;;;;;;;4.55;3.50;;;30.20;53.70;;;;;;6209201;23;20005;-76
2023/06/01 11:09:00;;;;;;;5.47;3.67;;;30.30;54.30;;;;;;6214179;23;19997;-77
2023/06/01 11:11:48;;;;;;;6.18;4.05;;;30.50;54.10;;;;;;6214079;23;20020;-77
2023/06/01 11:14:14;;;;;;;4.95;3.80;;;30.70;53.40;;;;;;6214939;23;19996;-79
2023/06/01 11:16:40;;;;;;;7.05;4.28;;;30.80;53.30;;;;;;6215557;23;20024;-79
2023/06/01 11:19:08;;;;;;;5.15;3.63;;;30.90;53.30;;;;;;6213448;23;20004;-79
2023/06/01 11:21:40;;;;;;;6.78;4.20;;;31.10;52.20;;;;;;6214714;23;20583;-79
2023/06/01 11:24:10;;;;;;;5.82;3.85;;;31.20;52.20;;;;;;6216031;23;20411;-79
2023/06/01 11:26:46;;;;;;;;;;;31.30;51.90;;;;;;6216903;23;20027;-80
2023/06/01 11:29:16;;;;;;;5.30;4.13;;;31.50;51.40;;;;;;6216218;23;19904;-78
2023/06/01 11:31:44;;;;;;;3.90;3.28;;;31.70;51.90;;;;;;6215690;23;20003;-78
2023/06/01 11:34:11;;;;;;;5.22;4.18;;;32.00;51.40;;;;;;6211546;23;20469;-77
2023/06/01 11:36:58;;;;;;;5.22;4.10;;;32.20;51.00;;;;;;6214043;23;20009;-78
2023/06/01 11:39:30;;;;;;;8.30;3.88;;;32.60;49.90;;;;;;6216425;23;20008;-77
2023/06/01 11:42:12;;;;;;;7.43;3.97;;;32.90;50.00;;;;;;6213925;23;20007;-78
2023/06/01 11:44:40;;;;;;;7.05;4.20;;;33.30;48.90;;;;;;6215528;23;20058;-78
2023/06/01 11:47:08;;;;;;;7.00;4.53;;;33.50;48.70;;;;;;6214727;23;20514;-78
2023/06/01 11:49:50;;;;;;;5.13;3.80;;;33.80;48.00;;;;;;6215163;23;20012;-78
2023/06/01 11:52:19;;;;;;;4.57;4.07;;;34.00;47.20;;;;;;6215141;23;20067;-77
2023/06/01 11:54:46;;;;;;;5.40;3.85;;;34.20;47.20;;;;;;6213928;23;20007;-78
2023/06/01 11:57:12;;;;;;;4.43;3.17;;;34.60;47.00;;;;;;6215724;23;20028;-78
2023/06/01 11:59:43;;;;;;;4.45;3.63;;;34.70;45.50;;;;;;6215563;23;20000;-78
2023/06/01 12:02:20;;;;;;;5.13;3.28;;;34.70;44.30;;;;;;6215835;23;20327;-79
2023/06/01 12:04:55;;;;;;;5.28;3.85;;;34.70;44.50;;;;;;6214879;23;19996;-77
2023/06/01 12:07:21;;;;;;;5.10;3.70;;;34.80;44.30;;;;;;6214408;23;20031;-79
2023/06/01 12:09:47;;;;;;;4.75;3.72;;;35.00;44.80;;;;;;6214760;23;20004;-78
2023/06/01 12:12:13;;;;;;;5.75;4.38;;;35.20;44.20;;;;;;6215968;23;20001;-78
2023/06/01 12:14:40;;;;;;;6.53;3.72;;;35.40;44.40;;;;;;6216212;23;20000;-79
2023/06/01 12:17:06;;;;;;;5.28;3.63;;;35.60;43.20;;;;;;6213889;23;20005;-79
2023/06/01 12:19:32;;;;;;;5.32;4.03;;;35.70;42.50;;;;;;6215560;23;20012;-79
2023/06/01 12:21:59;;;;;;;6.38;3.70;;;35.70;42.60;;;;;;6218094;23;20000;-78
2023/06/01 12:24:29;;;;;;;5.50;3.85;;;35.80;42.30;;;;;;6215589;23;20009;-79
2023/06/01 12:26:56;;;;;;;4.38;3.22;;;35.90;41.00;;;;;;6215173;23;20139;-79
2023/06/01 12:29:38;;;;;;;4.10;3.10;;;36.00;40.30;;;;;;6215521;23;20004;-79
2023/06/01 12:32:05;;;;;;;3.17;2.70;;;35.90;39.70;;;;;;6215427;23;20423;-79
2023/06/01 12:34:31;;;;;;;8.13;2.60;;;35.90;40.00;;;;;;6214918;23;20000;-80
2023/06/01 12:36:57;;;;;;;3.97;3.10;;;36.00;39.20;;;;;;6215468;23;20451;-79
2023/06/01 12:39:37;;;;;;;3.85;2.83;;;36.00;39.40;;;;;;6215069;23;20005;-79
2023/06/01 12:42:05;;;;;;;3.08;2.67;;;36.00;38.90;;;;;;6215198;23;20004;-80
2023/06/01 12:44:32;;;;;;;3.50;3.00;;;36.00;39.50;;;;;;6214799;23;20076;-79
2023/06/01 12:47:00;;;;;;;3.95;3.33;;;35.90;40.10;;;;;;6215283;23;20084;-80
2023/06/01 12:49:26;;;;;;;5.57;4.28;;;35.90;40.20;;;;;;6213860;23;20323;-79
2023/06/01 12:51:52;;;;;;;5.85;3.42;;;36.00;40.90;;;;;;6215383;23;20434;-79
2023/06/01 12:54:17;;;;;;;8.50;3.42;;;36.00;40.80;;;;;;6215749;23;20094;-79